createdAt,value
2019-05-26T00:00:14.043Z,0.00
2019-05-26T00:01:14.045Z,0.00
2019-05-26T00:02:14.066Z,0.00
2019-05-26T00:03:14.010Z,0.00
2019-05-26T00:04:13.995Z,0.00
2019-05-26T00:05:13.992Z,0.00
2019-05-26T00:06:13.980Z,0.00
2019-05-26T00:07:29.499Z,0.00
2019-05-26T00:08:15.249Z,0.00
2019-05-26T00:09:13.941Z,0.00
2019-05-26T00:10:13.934Z,0.00
2019-05-26T00:11:13.995Z,0.00
2019-05-26T00:12:16.040Z,0.00
2019-05-26T00:13:13.920Z,0.00
2019-05-26T00:14:13.895Z,0.00
2019-05-26T00:15:13.906Z,0.00
2019-05-26T00:16:13.874Z,0.00
2019-05-26T00:17:13.864Z,0.00
2019-05-26T00:18:13.913Z,0.00
2019-05-26T00:19:13.848Z,0.00
2019-05-26T00:20:13.828Z,0.00
2019-05-26T00:21:13.812Z,0.00
2019-05-26T00:22:13.806Z,0.00
2019-05-26T00:23:13.796Z,0.00
2019-05-26T00:24:13.822Z,0.00
2019-05-26T00:25:13.785Z,0.00
2019-05-26T00:26:13.761Z,0.00
2019-05-26T00:27:13.747Z,0.00
2019-05-26T00:28:13.736Z,0.00
2019-05-26T00:29:13.739Z,0.00
2019-05-26T00:30:13.738Z,0.00
2019-05-26T00:31:13.723Z,0.00
2019-05-26T00:32:13.685Z,0.00
2019-05-26T00:33:13.682Z,0.00
2019-05-26T00:34:13.682Z,0.00
2019-05-26T00:35:13.662Z,0.00
2019-05-26T00:36:13.830Z,0.00
2019-05-26T00:37:13.640Z,0.00
2019-05-26T00:38:13.633Z,0.00
2019-05-26T00:39:13.613Z,0.00
2019-05-26T00:40:13.612Z,0.00
2019-05-26T00:41:13.624Z,0.00
2019-05-26T00:42:13.599Z,0.00
2019-05-26T00:43:13.566Z,0.00
2019-05-26T00:44:13.554Z,0.00
2019-05-26T00:45:20.180Z,0.00
2019-05-26T00:46:13.566Z,0.00
2019-05-26T00:47:13.531Z,0.00
2019-05-26T00:48:13.511Z,0.00
2019-05-26T00:49:13.495Z,0.00
2019-05-26T00:50:13.484Z,0.00
2019-05-26T00:51:13.494Z,0.00
2019-05-26T00:52:13.479Z,0.00
2019-05-26T00:53:13.451Z,0.00
2019-05-26T00:54:13.453Z,0.00
2019-05-26T00:55:13.430Z,0.00
2019-05-26T00:56:13.424Z,0.00
2019-05-26T00:57:13.441Z,0.00
2019-05-26T00:58:13.411Z,0.00
2019-05-26T00:59:13.388Z,0.00
2019-05-26T01:00:13.373Z,0.00
2019-05-26T01:01:13.380Z,0.00
2019-05-26T01:02:13.363Z,0.00
2019-05-26T01:03:13.369Z,0.00
2019-05-26T01:04:13.373Z,0.00
2019-05-26T01:05:13.318Z,0.00
2019-05-26T01:06:13.311Z,0.00
2019-05-26T01:07:13.304Z,0.00
2019-05-26T01:08:13.290Z,0.00
2019-05-26T01:09:13.292Z,0.00
2019-05-26T01:10:13.393Z,0.00
2019-05-26T01:11:13.257Z,0.00
2019-05-26T01:12:13.243Z,0.00
2019-05-26T01:13:13.231Z,0.00
2019-05-26T01:14:13.230Z,0.00
2019-05-26T01:15:13.222Z,0.00
2019-05-26T01:16:13.224Z,0.00
2019-05-26T01:17:13.183Z,0.00
2019-05-26T01:18:13.178Z,0.00
2019-05-26T01:19:13.169Z,0.00
2019-05-26T01:20:13.166Z,0.00
2019-05-26T01:21:13.175Z,0.00
2019-05-26T01:22:13.127Z,0.00
2019-05-26T01:23:13.116Z,0.00
2019-05-26T01:24:13.109Z,0.00
2019-05-26T01:25:13.106Z,0.00
2019-05-26T01:26:13.128Z,0.00
2019-05-26T01:27:13.098Z,0.00
2019-05-26T01:28:13.062Z,0.00
2019-05-26T01:29:13.056Z,0.00
2019-05-26T01:30:13.055Z,0.00
2019-05-26T01:31:13.037Z,0.00
2019-05-26T01:32:13.047Z,0.00
2019-05-26T01:33:13.012Z,0.00
2019-05-26T01:34:12.993Z,0.00
2019-05-26T01:35:12.984Z,0.00
2019-05-26T01:36:12.980Z,0.00
2019-05-26T01:37:12.960Z,0.00
2019-05-26T01:38:23.407Z,0.00
2019-05-26T01:39:13.965Z,0.00
2019-05-26T01:40:12.927Z,0.00
2019-05-26T01:41:12.915Z,0.00
2019-05-26T01:42:12.915Z,0.00
2019-05-26T01:43:12.923Z,0.00
2019-05-26T01:44:12.892Z,0.00
2019-05-26T01:45:12.872Z,0.00
2019-05-26T01:46:12.865Z,0.00
2019-05-26T01:47:12.848Z,0.00
2019-05-26T01:48:12.856Z,0.00
2019-05-26T01:49:12.836Z,0.00
2019-05-26T01:50:12.853Z,0.00
2019-05-26T01:51:12.805Z,0.00
2019-05-26T01:52:12.797Z,0.00
2019-05-26T01:53:12.789Z,0.00
2019-05-26T01:54:12.781Z,0.00
2019-05-26T01:55:12.802Z,0.00
2019-05-26T01:56:12.748Z,0.00
2019-05-26T01:57:12.741Z,0.00
2019-05-26T01:58:12.735Z,0.00
2019-05-26T01:59:12.734Z,0.00
2019-05-26T02:00:12.717Z,0.00
2019-05-26T02:01:12.721Z,0.00
2019-05-26T02:02:12.693Z,0.00
2019-05-26T02:03:12.682Z,0.00
2019-05-26T02:04:12.665Z,0.00
2019-05-26T02:05:12.652Z,0.00
2019-05-26T02:06:12.941Z,0.00
2019-05-26T02:07:12.661Z,0.00
2019-05-26T02:08:12.614Z,0.00
2019-05-26T02:09:12.604Z,0.00
2019-05-26T02:10:12.597Z,0.00
2019-05-26T02:11:12.596Z,0.00
2019-05-26T02:12:12.594Z,0.00
2019-05-26T02:13:12.576Z,4.00
2019-05-26T02:14:14.569Z,4.00
2019-05-26T02:15:12.547Z,4.00
2019-05-26T02:16:12.535Z,0.00
2019-05-26T02:17:12.543Z,0.00
2019-05-26T02:18:12.515Z,4.00
2019-05-26T02:19:12.493Z,4.00
2019-05-26T02:20:12.483Z,4.00
2019-05-26T02:21:14.801Z,4.00
2019-05-26T02:22:12.461Z,8.00
2019-05-26T02:23:12.468Z,4.00
2019-05-26T02:24:12.437Z,8.00
2019-05-26T02:25:12.434Z,8.00
2019-05-26T02:26:12.419Z,12.00
2019-05-26T02:27:12.405Z,12.00
2019-05-26T02:28:12.399Z,12.00
2019-05-26T02:29:12.416Z,12.00
2019-05-26T02:30:12.375Z,16.00
2019-05-26T02:31:12.360Z,16.00
2019-05-26T02:32:12.359Z,20.00
2019-05-26T02:33:12.339Z,20.00
2019-05-26T02:34:12.333Z,24.00
2019-05-26T02:35:12.341Z,28.00
2019-05-26T02:36:12.377Z,32.00
2019-05-26T02:37:12.305Z,32.00
2019-05-26T02:38:12.298Z,36.00
2019-05-26T02:39:12.562Z,44.00
2019-05-26T02:40:12.312Z,48.00
2019-05-26T02:41:12.251Z,56.00
2019-05-26T02:42:12.297Z,64.00
2019-05-26T02:43:12.232Z,72.00
2019-05-26T02:44:12.212Z,80.00
2019-05-26T02:45:12.246Z,88.00
2019-05-26T02:46:12.194Z,96.00
2019-05-26T02:47:12.188Z,104.00
2019-05-26T02:48:12.177Z,120.00
2019-05-26T02:49:12.163Z,132.00
2019-05-26T02:50:12.162Z,136.00
2019-05-26T02:51:12.155Z,148.00
2019-05-26T02:52:12.160Z,160.00
2019-05-26T02:53:12.127Z,168.00
2019-05-26T02:54:12.108Z,180.00
2019-05-26T02:55:12.097Z,188.00
2019-05-26T02:56:12.079Z,200.00
2019-05-26T02:57:12.077Z,212.00
2019-05-26T02:58:12.091Z,224.00
2019-05-26T02:59:12.051Z,236.00
2019-05-26T03:00:12.038Z,252.00
2019-05-26T03:01:12.037Z,264.00
2019-05-26T03:02:12.018Z,280.00
2019-05-26T03:03:12.022Z,300.00
2019-05-26T03:04:12.024Z,316.00
2019-05-26T03:05:11.982Z,336.00
2019-05-26T03:06:11.970Z,352.00
2019-05-26T03:07:11.962Z,372.00
2019-05-26T03:08:11.954Z,396.00
2019-05-26T03:09:22.609Z,420.00
2019-05-26T03:10:13.936Z,440.00
2019-05-26T03:11:11.911Z,468.00
2019-05-26T03:12:11.909Z,496.00
2019-05-26T03:13:11.890Z,528.00
2019-05-26T03:14:11.922Z,556.00
2019-05-26T03:15:11.869Z,584.00
2019-05-26T03:16:11.897Z,612.00
2019-05-26T03:17:11.855Z,644.00
2019-05-26T03:18:11.842Z,676.00
2019-05-26T03:19:11.833Z,712.00
2019-05-26T03:20:11.825Z,744.00
2019-05-26T03:21:11.813Z,780.00
2019-05-26T03:22:11.830Z,816.00
2019-05-26T03:23:11.782Z,848.00
2019-05-26T03:24:11.774Z,888.00
2019-05-26T03:25:11.776Z,932.00
2019-05-26T03:26:11.764Z,980.00
2019-05-26T03:27:11.742Z,1032.00
2019-05-26T03:28:11.789Z,1088.00
2019-05-26T03:29:11.718Z,1144.00
2019-05-26T03:30:11.742Z,1200.00
2019-05-26T03:31:11.707Z,1256.00
2019-05-26T03:32:11.686Z,1308.00
2019-05-26T03:33:11.699Z,1352.00
2019-05-26T03:34:11.660Z,1392.00
2019-05-26T03:35:11.692Z,1428.00
2019-05-26T03:36:11.658Z,1468.00
2019-05-26T03:37:11.641Z,1512.00
2019-05-26T03:38:11.629Z,1552.00
2019-05-26T03:39:11.617Z,1596.00
2019-05-26T03:40:11.590Z,1640.00
2019-05-26T03:41:11.895Z,1688.00
2019-05-26T03:42:11.638Z,1736.00
2019-05-26T03:43:11.568Z,1792.00
2019-05-26T03:44:11.555Z,1856.00
2019-05-26T03:45:11.552Z,1928.00
2019-05-26T03:46:11.543Z,2012.00
2019-05-26T03:47:16.389Z,2112.00
2019-05-26T03:48:12.655Z,2216.00
2019-05-26T03:49:11.511Z,2316.00
2019-05-26T03:50:11.485Z,2400.00
2019-05-26T03:51:11.540Z,2460.00
2019-05-26T03:52:11.589Z,2516.00
2019-05-26T03:53:11.453Z,2556.00
2019-05-26T03:54:11.460Z,2608.00
2019-05-26T03:55:11.437Z,2660.00
2019-05-26T03:56:11.425Z,2704.00
2019-05-26T03:57:11.428Z,2740.00
2019-05-26T03:58:11.399Z,2784.00
2019-05-26T03:59:11.578Z,2836.00
2019-05-26T04:00:11.389Z,2896.00
2019-05-26T04:01:11.399Z,2960.00
2019-05-26T04:02:11.367Z,3024.00
2019-05-26T04:03:11.344Z,3100.00
2019-05-26T04:04:11.336Z,3168.00
2019-05-26T04:05:11.318Z,3240.00
2019-05-26T04:06:11.308Z,3288.00
2019-05-26T04:07:12.503Z,3336.00
2019-05-26T04:08:11.296Z,3384.00
2019-05-26T04:09:11.281Z,3448.00
2019-05-26T04:10:11.270Z,3524.00
2019-05-26T04:11:11.254Z,3604.00
2019-05-26T04:12:11.241Z,3676.00
2019-05-26T04:13:11.260Z,3744.00
2019-05-26T04:14:11.216Z,3792.00
2019-05-26T04:15:11.206Z,3824.00
2019-05-26T04:16:11.197Z,3848.00
2019-05-26T04:17:11.187Z,3876.00
2019-05-26T04:18:11.209Z,3904.00
2019-05-26T04:19:11.156Z,3952.00
2019-05-26T04:20:11.150Z,3984.00
2019-05-26T04:21:11.146Z,4024.00
2019-05-26T04:22:11.132Z,4072.00
2019-05-26T04:23:11.147Z,4140.00
2019-05-26T04:24:11.102Z,4236.00
2019-05-26T04:25:11.121Z,4328.00
2019-05-26T04:26:11.081Z,4400.00
2019-05-26T04:27:11.094Z,4456.00
2019-05-26T04:28:11.065Z,4504.00
2019-05-26T04:29:11.119Z,4544.00
2019-05-26T04:30:11.052Z,4616.00
2019-05-26T04:31:11.024Z,4688.00
2019-05-26T04:32:11.022Z,4764.00
2019-05-26T04:33:11.008Z,4868.00
2019-05-26T04:34:11.014Z,4964.00
2019-05-26T04:35:11.192Z,5044.00
2019-05-26T04:36:10.968Z,5132.00
2019-05-26T04:37:10.967Z,5216.00
2019-05-26T04:38:10.949Z,5276.00
2019-05-26T04:39:10.946Z,5300.00
2019-05-26T04:40:25.734Z,5304.00
2019-05-26T04:41:11.916Z,5320.00
2019-05-26T04:42:10.906Z,5340.00
2019-05-26T04:43:14.578Z,5372.00
2019-05-26T04:44:10.889Z,5420.00
2019-05-26T04:45:10.888Z,5476.00
2019-05-26T04:46:18.773Z,5504.00
2019-05-26T04:47:10.854Z,5500.00
2019-05-26T04:48:10.839Z,5496.00
2019-05-26T04:49:10.825Z,5488.00
2019-05-26T04:50:10.842Z,5480.00
2019-05-26T04:51:10.802Z,5484.00
2019-05-26T04:52:10.815Z,5480.00
2019-05-26T04:53:10.831Z,5476.00
2019-05-26T04:54:10.779Z,5464.00
2019-05-26T04:55:10.764Z,5480.00
2019-05-26T04:56:10.757Z,5520.00
2019-05-26T04:57:10.758Z,5560.00
2019-05-26T04:58:10.739Z,5612.00
2019-05-26T04:59:10.715Z,5696.00
2019-05-26T05:00:10.712Z,5792.00
2019-05-26T05:01:10.696Z,5856.00
2019-05-26T05:02:10.690Z,5928.00
2019-05-26T05:03:10.719Z,6004.00
2019-05-26T05:04:10.675Z,6124.00
2019-05-26T05:05:10.648Z,6292.00
2019-05-26T05:06:10.637Z,6588.00
2019-05-26T05:07:10.640Z,6772.00
2019-05-26T05:08:10.618Z,6808.00
2019-05-26T05:09:10.915Z,6804.00
2019-05-26T05:10:10.589Z,6800.00
2019-05-26T05:11:10.582Z,6744.00
2019-05-26T05:12:10.583Z,6692.00
2019-05-26T05:13:10.572Z,6692.00
2019-05-26T05:14:10.586Z,6720.00
2019-05-26T05:15:10.535Z,6744.00
2019-05-26T05:16:10.526Z,6768.00
2019-05-26T05:17:10.513Z,6776.00
2019-05-26T05:18:10.514Z,6812.00
2019-05-26T05:19:10.497Z,6840.00
2019-05-26T05:20:10.508Z,6808.00
2019-05-26T05:21:10.464Z,6888.00
2019-05-26T05:22:10.456Z,6956.00
2019-05-26T05:23:10.465Z,7128.00
2019-05-26T05:24:10.436Z,7240.00
2019-05-26T05:25:14.996Z,7420.00
2019-05-26T05:26:11.501Z,7540.00
2019-05-26T05:27:10.402Z,7828.00
2019-05-26T05:28:10.397Z,8220.00
2019-05-26T05:29:10.403Z,8628.00
2019-05-26T05:30:10.370Z,8868.00
2019-05-26T05:31:10.386Z,9172.00
2019-05-26T05:32:10.348Z,9344.00
2019-05-26T05:33:10.332Z,9508.00
2019-05-26T05:34:10.326Z,9836.00
2019-05-26T05:35:10.318Z,10068.00
2019-05-26T05:36:10.308Z,10304.00
2019-05-26T05:37:10.388Z,10524.00
2019-05-26T05:38:10.281Z,10796.00
2019-05-26T05:39:10.263Z,10960.00
2019-05-26T05:40:10.268Z,10880.00
2019-05-26T05:41:10.244Z,10800.00
2019-05-26T05:42:10.279Z,10904.00
2019-05-26T05:43:10.222Z,10972.00
2019-05-26T05:44:10.217Z,11148.00
2019-05-26T05:45:10.218Z,10972.00
2019-05-26T05:46:10.200Z,11084.00
2019-05-26T05:47:10.180Z,11280.00
2019-05-26T05:48:10.209Z,11424.00
2019-05-26T05:49:10.167Z,11540.00
2019-05-26T05:50:10.154Z,11628.00
2019-05-26T05:51:10.141Z,11624.00
2019-05-26T05:52:10.132Z,11804.00
2019-05-26T05:53:10.118Z,11848.00
2019-05-26T05:54:10.117Z,11992.00
2019-05-26T05:55:10.110Z,12020.00
2019-05-26T05:56:10.092Z,12164.00
2019-05-26T05:57:10.073Z,12288.00
2019-05-26T05:58:10.082Z,12324.00
2019-05-26T05:59:10.148Z,12412.00
2019-05-26T06:00:10.037Z,12688.00
2019-05-26T06:01:10.018Z,13092.00
2019-05-26T06:02:10.018Z,13320.00
2019-05-26T06:03:10.073Z,13376.00
2019-05-26T06:04:09.992Z,13400.00
2019-05-26T06:05:09.993Z,13452.00
2019-05-26T06:06:09.983Z,13660.00
2019-05-26T06:07:09.950Z,13732.00
2019-05-26T06:08:09.940Z,13892.00
2019-05-26T06:09:09.931Z,14048.00
2019-05-26T06:10:09.932Z,14124.00
2019-05-26T06:11:16.671Z,14204.00
2019-05-26T06:12:10.903Z,14072.00
2019-05-26T06:13:09.889Z,14092.00
2019-05-26T06:14:09.872Z,14256.00
2019-05-26T06:15:09.860Z,14280.00
2019-05-26T06:16:09.887Z,14412.00
2019-05-26T06:17:10.600Z,14604.00
2019-05-26T06:18:09.830Z,14740.00
2019-05-26T06:19:09.830Z,14804.00
2019-05-26T06:20:09.809Z,15148.00
2019-05-26T06:21:09.815Z,15384.00
2019-05-26T06:22:09.815Z,15536.00
2019-05-26T06:23:09.773Z,15588.00
2019-05-26T06:24:09.764Z,15832.00
2019-05-26T06:25:09.769Z,15904.00
2019-05-26T06:26:09.748Z,16036.00
2019-05-26T06:27:09.750Z,16168.00
2019-05-26T06:28:09.715Z,16132.00
2019-05-26T06:29:09.716Z,15948.00
2019-05-26T06:30:09.715Z,15820.00
2019-05-26T06:31:09.698Z,15820.00
2019-05-26T06:32:10.001Z,15860.00
2019-05-26T06:33:09.682Z,16004.00
2019-05-26T06:34:09.664Z,15596.00
2019-05-26T06:35:09.646Z,15976.00
2019-05-26T06:36:09.631Z,15884.00
2019-05-26T06:37:09.613Z,15912.00
2019-05-26T06:38:11.372Z,15976.00
2019-05-26T06:39:09.595Z,16248.00
2019-05-26T06:40:09.584Z,16540.00
2019-05-26T06:41:09.578Z,17024.00
2019-05-26T06:42:12.788Z,15956.00
2019-05-26T06:43:09.568Z,15304.00
2019-05-26T06:44:09.551Z,16424.00
2019-05-26T06:45:09.540Z,17120.00
2019-05-26T06:46:09.534Z,17504.00
2019-05-26T06:47:09.534Z,18048.00
2019-05-26T06:48:09.491Z,16700.00
2019-05-26T06:49:09.482Z,17344.00
2019-05-26T06:50:09.471Z,18208.00
2019-05-26T06:51:09.477Z,20000.00
2019-05-26T06:52:09.457Z,20224.00
2019-05-26T06:53:09.443Z,20160.00
2019-05-26T06:54:09.428Z,20544.00
2019-05-26T06:55:09.420Z,20928.00
2019-05-26T06:56:09.437Z,21344.00
2019-05-26T06:57:09.397Z,21024.00
2019-05-26T06:58:09.402Z,20960.00
2019-05-26T06:59:09.369Z,20256.00
2019-05-26T07:00:09.362Z,19968.00
2019-05-26T07:01:09.364Z,20096.00
2019-05-26T07:02:09.336Z,19424.00
2019-05-26T07:03:09.333Z,22080.00
2019-05-26T07:04:09.317Z,24416.00
2019-05-26T07:05:09.315Z,27296.00
2019-05-26T07:06:09.295Z,26112.00
2019-05-26T07:07:09.515Z,25312.00
2019-05-26T07:08:09.287Z,24896.00
2019-05-26T07:09:09.261Z,25760.00
2019-05-26T07:10:09.261Z,27712.00
2019-05-26T07:11:09.243Z,28128.00
2019-05-26T07:12:09.246Z,26976.00
2019-05-26T07:13:09.221Z,29600.00
2019-05-26T07:14:09.210Z,24480.00
2019-05-26T07:15:09.209Z,26432.00
2019-05-26T07:16:09.255Z,26944.00
2019-05-26T07:17:09.178Z,33056.00
2019-05-26T07:18:09.236Z,42656.00
2019-05-26T07:19:09.155Z,52640.00
2019-05-26T07:20:09.297Z,64224.00
2019-05-26T07:21:09.133Z,64768.00
2019-05-26T07:22:09.116Z,63648.00
2019-05-26T07:23:09.474Z,61760.00
2019-05-26T07:24:09.092Z,59232.00
2019-05-26T07:25:09.092Z,59840.00
2019-05-26T07:26:09.121Z,61600.00
2019-05-26T07:27:09.074Z,64352.00
2019-05-26T07:28:09.044Z,67200.00
2019-05-26T07:29:09.041Z,63520.00
2019-05-26T07:30:09.037Z,62368.00
2019-05-26T07:31:09.027Z,57600.00
2019-05-26T07:32:09.046Z,59584.00
2019-05-26T07:33:08.993Z,57632.00
2019-05-26T07:34:08.989Z,61216.00
2019-05-26T07:35:08.978Z,57728.00
2019-05-26T07:36:08.962Z,56288.00
2019-05-26T07:37:08.972Z,50112.00
2019-05-26T07:38:09.049Z,51296.00
2019-05-26T07:39:08.996Z,52352.00
2019-05-26T07:40:08.926Z,50272.00
2019-05-26T07:41:08.917Z,47808.00
2019-05-26T07:42:11.042Z,46176.00
2019-05-26T07:43:08.890Z,47040.00
2019-05-26T07:44:08.869Z,45280.00
2019-05-26T07:45:08.898Z,46720.00
2019-05-26T07:46:08.862Z,46592.00
2019-05-26T07:47:08.856Z,45696.00
2019-05-26T07:48:08.830Z,43360.00
2019-05-26T07:49:08.815Z,45088.00
2019-05-26T07:50:08.805Z,43584.00
2019-05-26T07:51:08.802Z,49120.00
2019-05-26T07:52:08.795Z,52672.00
2019-05-26T07:53:08.811Z,52576.00
2019-05-26T07:54:24.264Z,55264.00
2019-05-26T07:55:09.781Z,50592.00
2019-05-26T07:56:08.738Z,49344.00
2019-05-26T07:57:08.739Z,46944.00
2019-05-26T07:58:08.731Z,46592.00
2019-05-26T07:59:08.721Z,50432.00
2019-05-26T08:00:08.699Z,55328.00
2019-05-26T08:01:09.016Z,53248.00
2019-05-26T08:02:08.703Z,50560.00
2019-05-26T08:03:08.678Z,50304.00
2019-05-26T08:04:08.663Z,50080.00
2019-05-26T08:05:08.640Z,51424.00
2019-05-26T08:06:08.632Z,52960.00
2019-05-26T08:07:08.619Z,52672.00
2019-05-26T08:08:13.044Z,50240.00
2019-05-26T08:09:08.598Z,51136.00
2019-05-26T08:10:08.605Z,50016.00
2019-05-26T08:11:08.593Z,47616.00
2019-05-26T08:12:23.098Z,46112.00
2019-05-26T08:13:09.635Z,45600.00
2019-05-26T08:14:08.581Z,44320.00
2019-05-26T08:15:08.553Z,42464.00
2019-05-26T08:16:08.557Z,42976.00
2019-05-26T08:17:08.514Z,44000.00
2019-05-26T08:18:08.505Z,40320.00
2019-05-26T08:19:08.583Z,36576.00
2019-05-26T08:20:08.471Z,32192.00
2019-05-26T08:21:08.475Z,36192.00
2019-05-26T08:22:08.457Z,43904.00
2019-05-26T08:23:08.763Z,48384.00
2019-05-26T08:24:08.448Z,50368.00
2019-05-26T08:25:08.452Z,51648.00
2019-05-26T08:26:08.474Z,51072.00
2019-05-26T08:27:08.406Z,50720.00
2019-05-26T08:28:08.410Z,49792.00
2019-05-26T08:29:08.382Z,53888.00
2019-05-26T08:30:08.422Z,54720.00
2019-05-26T08:31:08.383Z,52160.00
2019-05-26T08:32:08.357Z,50880.00
2019-05-26T08:33:08.339Z,51008.00
2019-05-26T08:34:08.332Z,51744.00
2019-05-26T08:35:08.340Z,55520.00
2019-05-26T08:36:08.328Z,57056.00
2019-05-26T08:37:08.297Z,52768.00
2019-05-26T08:38:08.278Z,53536.00
2019-05-26T08:39:08.278Z,54208.00
2019-05-26T08:40:08.258Z,56032.00
2019-05-26T08:41:08.260Z,53184.00
2019-05-26T08:42:08.240Z,55456.00
2019-05-26T08:43:08.231Z,54592.00
2019-05-26T08:44:08.221Z,55680.00
2019-05-26T08:45:08.212Z,55104.00
2019-05-26T08:46:09.042Z,54848.00
2019-05-26T08:47:08.188Z,45088.00
2019-05-26T08:48:08.194Z,55136.00
2019-05-26T08:49:08.206Z,54624.00
2019-05-26T08:50:08.151Z,47040.00
2019-05-26T08:51:08.141Z,44032.00
2019-05-26T08:52:08.220Z,59296.00
2019-05-26T08:53:08.129Z,60352.00
2019-05-26T08:54:08.113Z,57536.00
2019-05-26T08:55:08.122Z,29824.00
2019-05-26T08:56:08.081Z,35104.00
2019-05-26T08:57:08.111Z,56896.00
2019-05-26T08:58:08.066Z,61344.00
2019-05-26T08:59:08.072Z,49152.00
2019-05-26T09:00:08.043Z,54912.00
2019-05-26T09:01:08.065Z,61184.00
2019-05-26T09:02:08.050Z,62944.00
2019-05-26T09:03:08.021Z,65088.00
2019-05-26T09:04:08.002Z,66784.00
2019-05-26T09:05:07.993Z,70016.00
2019-05-26T09:06:07.983Z,70688.00
2019-05-26T09:07:07.974Z,66496.00
2019-05-26T09:08:08.443Z,70208.00
2019-05-26T09:09:07.936Z,66016.00
2019-05-26T09:10:07.937Z,42368.00
2019-05-26T09:11:07.918Z,50976.00
2019-05-26T09:12:07.912Z,66784.00
2019-05-26T09:13:07.955Z,24480.00
2019-05-26T09:14:07.881Z,25312.00
2019-05-26T09:15:07.878Z,28480.00
2019-05-26T09:16:07.884Z,73824.00
2019-05-26T09:17:07.867Z,77184.00
2019-05-26T09:18:07.846Z,73888.00
2019-05-26T09:19:07.867Z,32224.00
2019-05-26T09:20:10.910Z,26688.00
2019-05-26T09:21:07.839Z,31680.00
2019-05-26T09:22:07.811Z,30016.00
2019-05-26T09:23:07.831Z,56000.00
2019-05-26T09:24:07.777Z,78080.00
2019-05-26T09:25:07.867Z,87040.00
2019-05-26T09:26:07.779Z,87072.00
2019-05-26T09:27:07.768Z,49248.00
2019-05-26T09:28:07.736Z,32480.00
2019-05-26T09:29:07.731Z,86016.00
2019-05-26T09:30:07.730Z,82400.00
2019-05-26T09:31:07.699Z,82752.00
2019-05-26T09:32:07.723Z,35520.00
2019-05-26T09:33:07.682Z,34240.00
2019-05-26T09:34:07.780Z,71744.00
2019-05-26T09:35:07.658Z,34752.00
2019-05-26T09:36:07.638Z,72032.00
2019-05-26T09:37:07.648Z,76480.00
2019-05-26T09:38:07.663Z,45536.00
2019-05-26T09:39:07.621Z,50560.00
2019-05-26T09:40:07.644Z,74016.00
2019-05-26T09:41:07.593Z,77152.00
2019-05-26T09:42:07.576Z,81568.00
2019-05-26T09:43:15.796Z,67808.00
2019-05-26T09:44:08.557Z,47680.00
2019-05-26T09:45:07.549Z,92256.00
2019-05-26T09:46:07.534Z,84320.00
2019-05-26T09:47:07.584Z,76800.00
2019-05-26T09:48:07.511Z,81792.00
2019-05-26T09:49:07.532Z,94400.00
2019-05-26T09:50:07.513Z,87200.00
2019-05-26T09:51:07.535Z,36000.00
2019-05-26T09:52:07.514Z,101088.00
2019-05-26T09:53:07.459Z,27424.00
2019-05-26T09:54:07.443Z,21728.00
2019-05-26T09:55:07.482Z,22720.00
2019-05-26T09:56:07.451Z,28576.00
2019-05-26T09:57:07.422Z,85952.00
2019-05-26T09:58:07.411Z,27040.00
2019-05-26T09:59:07.392Z,24736.00
2019-05-26T10:00:07.425Z,31296.00
2019-05-26T10:01:07.389Z,58272.00
2019-05-26T10:02:07.373Z,40608.00
2019-05-26T10:03:07.364Z,62432.00
2019-05-26T10:04:07.346Z,102080.00
2019-05-26T10:05:07.331Z,106880.00
2019-05-26T10:06:07.350Z,101824.00
2019-05-26T10:07:10.749Z,94624.00
2019-05-26T10:08:08.298Z,52896.00
2019-05-26T10:09:07.292Z,98720.00
2019-05-26T10:10:07.276Z,97248.00
2019-05-26T10:11:07.263Z,58496.00
2019-05-26T10:12:07.261Z,32384.00
2019-05-26T10:13:07.281Z,87712.00
2019-05-26T10:14:07.244Z,87136.00
2019-05-26T10:15:07.221Z,94368.00
2019-05-26T10:16:07.225Z,61824.00
2019-05-26T10:17:07.197Z,78912.00
2019-05-26T10:18:07.192Z,38048.00
2019-05-26T10:19:07.201Z,46048.00
2019-05-26T10:20:07.176Z,84320.00
2019-05-26T10:21:07.175Z,83072.00
2019-05-26T10:22:07.147Z,83776.00
2019-05-26T10:23:07.162Z,91808.00
2019-05-26T10:24:07.146Z,82144.00
2019-05-26T10:25:07.121Z,33632.00
2019-05-26T10:26:07.119Z,33824.00
2019-05-26T10:27:07.091Z,50464.00
2019-05-26T10:28:07.094Z,63744.00
2019-05-26T10:29:07.236Z,66240.00
2019-05-26T10:30:07.071Z,35264.00
2019-05-26T10:31:07.048Z,66432.00
2019-05-26T10:32:07.049Z,67520.00
2019-05-26T10:33:07.067Z,38848.00
2019-05-26T10:34:07.063Z,30592.00
2019-05-26T10:35:07.030Z,24928.00
2019-05-26T10:36:07.009Z,24640.00
2019-05-26T10:37:06.987Z,57760.00
2019-05-26T10:38:06.984Z,36352.00
2019-05-26T10:39:06.995Z,31232.00
2019-05-26T10:40:06.961Z,59840.00
2019-05-26T10:41:06.949Z,58912.00
2019-05-26T10:42:06.934Z,47680.00
2019-05-26T10:43:06.927Z,40640.00
2019-05-26T10:44:06.924Z,31584.00
2019-05-26T10:45:06.908Z,59648.00
2019-05-26T10:46:06.903Z,74208.00
2019-05-26T10:47:06.886Z,76640.00
2019-05-26T10:48:06.865Z,81888.00
2019-05-26T10:49:06.862Z,38848.00
2019-05-26T10:50:06.869Z,39520.00
2019-05-26T10:51:07.093Z,70432.00
2019-05-26T10:52:06.852Z,78560.00
2019-05-26T10:53:06.821Z,81152.00
2019-05-26T10:54:06.841Z,69760.00
2019-05-26T10:55:06.874Z,63072.00
2019-05-26T10:56:06.802Z,66176.00
2019-05-26T10:57:06.812Z,63808.00
2019-05-26T10:58:06.761Z,63968.00
2019-05-26T10:59:06.745Z,73280.00
2019-05-26T11:00:06.733Z,79520.00
2019-05-26T11:01:06.748Z,74400.00
2019-05-26T11:02:06.724Z,88480.00
2019-05-26T11:03:06.790Z,97952.00
2019-05-26T11:04:06.698Z,81024.00
2019-05-26T11:05:06.718Z,71264.00
2019-05-26T11:06:06.675Z,96800.00
2019-05-26T11:07:06.675Z,89504.00
2019-05-26T11:08:06.654Z,54784.00
2019-05-26T11:09:06.659Z,64960.00
2019-05-26T11:10:06.635Z,70656.00
2019-05-26T11:11:06.630Z,64608.00
2019-05-26T11:12:06.607Z,44928.00
2019-05-26T11:13:06.606Z,55584.00
2019-05-26T11:14:06.653Z,44032.00
2019-05-26T11:15:06.594Z,63872.00
2019-05-26T11:16:06.588Z,64096.00
2019-05-26T11:17:06.552Z,78752.00
2019-05-26T11:18:06.549Z,106432.00
2019-05-26T11:19:06.550Z,42112.00
2019-05-26T11:20:06.560Z,67776.00
2019-05-26T11:21:06.511Z,35584.00
2019-05-26T11:22:06.534Z,35616.00
2019-05-26T11:23:06.495Z,42464.00
2019-05-26T11:24:06.501Z,47424.00
2019-05-26T11:25:06.488Z,73152.00
2019-05-26T11:26:06.485Z,89408.00
2019-05-26T11:27:10.670Z,68512.00
2019-05-26T11:28:07.446Z,55040.00
2019-05-26T11:29:06.429Z,113376.00
2019-05-26T11:30:06.421Z,86784.00
2019-05-26T11:31:06.442Z,100800.00
2019-05-26T11:32:06.415Z,38656.00
2019-05-26T11:33:06.390Z,36704.00
2019-05-26T11:34:06.376Z,36160.00
2019-05-26T11:35:06.375Z,35296.00
2019-05-26T11:36:06.364Z,35296.00
2019-05-26T11:37:06.366Z,37312.00
2019-05-26T11:38:06.381Z,45536.00
2019-05-26T11:39:06.317Z,80992.00
2019-05-26T11:40:06.307Z,53440.00
2019-05-26T11:41:06.330Z,65888.00
2019-05-26T11:42:13.362Z,79104.00
2019-05-26T11:43:16.423Z,122752.00
2019-05-26T11:44:17.528Z,91040.00
2019-05-26T11:45:07.253Z,78304.00
2019-05-26T11:46:06.256Z,81024.00
2019-05-26T11:47:06.279Z,74464.00
2019-05-26T11:48:06.239Z,79168.00
2019-05-26T11:49:06.208Z,82368.00
2019-05-26T11:50:06.202Z,88256.00
2019-05-26T11:51:06.192Z,126784.00
2019-05-26T11:52:06.323Z,112448.00
2019-05-26T11:53:06.224Z,96128.00
2019-05-26T11:54:06.179Z,98016.00
2019-05-26T11:55:06.151Z,127040.00
2019-05-26T11:56:06.143Z,113312.00
2019-05-26T11:57:06.141Z,80224.00
2019-05-26T11:58:06.123Z,68608.00
2019-05-26T11:59:06.127Z,81824.00
2019-05-26T12:00:06.121Z,77664.00
2019-05-26T12:01:06.098Z,88480.00
2019-05-26T12:02:06.083Z,80320.00
2019-05-26T12:03:06.088Z,49312.00
2019-05-26T12:04:06.055Z,84192.00
2019-05-26T12:05:06.060Z,55936.00
2019-05-26T12:06:06.055Z,82144.00
2019-05-26T12:07:06.054Z,37984.00
2019-05-26T12:08:06.068Z,35232.00
2019-05-26T12:09:06.016Z,34304.00